sensor_id;sensor_type;location;lat;lon;timestamp;temperature;humidity
24636;DHT22;12772;49.794;10.024;2023-05-07T00:02:02;18.00;46.40
24636;DHT22;12772;49.794;10.024;2023-05-07T00:06:04;18.00;46.30
24636;DHT22;12772;49.794;10.024;2023-05-07T00:10:07;18.00;46.30
24636;DHT22;12772;49.794;10.024;2023-05-07T00:14:09;18.00;46.40
24636;DHT22;12772;49.794;10.024;2023-05-07T00:18:11;18.00;46.50
24636;DHT22;12772;49.794;10.024;2023-05-07T00:22:13;18.00;46.60
24636;DHT22;12772;49.794;10.024;2023-05-07T00:26:16;18.00;46.60
24636;DHT22;12772;49.794;10.024;2023-05-07T00:30:18;17.90;46.20
24636;DHT22;12772;49.794;10.024;2023-05-07T00:34:20;17.90;46.10
24636;DHT22;12772;49.794;10.024;2023-05-07T00:38:22;17.90;46.00
24636;DHT22;12772;49.794;10.024;2023-05-07T00:42:24;17.80;45.80
24636;DHT22;12772;49.794;10.024;2023-05-07T00:46:26;17.80;46.20
24636;DHT22;12772;49.794;10.024;2023-05-07T00:50:29;17.80;46.50
24636;DHT22;12772;49.794;10.024;2023-05-07T00:54:31;17.80;47.30
24636;DHT22;12772;49.794;10.024;2023-05-07T00:58:34;17.80;46.60
24636;DHT22;12772;49.794;10.024;2023-05-07T01:02:37;17.70;46.50
24636;DHT22;12772;49.794;10.024;2023-05-07T01:06:40;17.80;46.60
24636;DHT22;12772;49.794;10.024;2023-05-07T01:10:43;17.70;46.40
24636;DHT22;12772;49.794;10.024;2023-05-07T01:14:45;17.80;46.50
24636;DHT22;12772;49.794;10.024;2023-05-07T01:18:49;17.80;46.60
24636;DHT22;12772;49.794;10.024;2023-05-07T01:22:52;17.70;46.40
24636;DHT22;12772;49.794;10.024;2023-05-07T01:26:55;17.80;46.30
24636;DHT22;12772;49.794;10.024;2023-05-07T01:31:01;17.70;46.20
24636;DHT22;12772;49.794;10.024;2023-05-07T01:35:07;17.70;46.40
24636;DHT22;12772;49.794;10.024;2023-05-07T01:39:12;17.60;46.20
24636;DHT22;12772;49.794;10.024;2023-05-07T01:43:14;17.60;46.20
24636;DHT22;12772;49.794;10.024;2023-05-07T01:47:17;17.50;46.20
24636;DHT22;12772;49.794;10.024;2023-05-07T01:51:19;17.40;46.40
24636;DHT22;12772;49.794;10.024;2023-05-07T01:55:22;17.30;46.70
24636;DHT22;12772;49.794;10.024;2023-05-07T01:59:24;17.20;46.80
24636;DHT22;12772;49.794;10.024;2023-05-07T02:03:26;17.10;46.90
24636;DHT22;12772;49.794;10.024;2023-05-07T02:07:28;17.00;47.10
24636;DHT22;12772;49.794;10.024;2023-05-07T02:11:30;17.00;47.30
24636;DHT22;12772;49.794;10.024;2023-05-07T02:15:32;16.90;47.50
24636;DHT22;12772;49.794;10.024;2023-05-07T02:19:34;16.90;47.70
24636;DHT22;12772;49.794;10.024;2023-05-07T02:23:36;16.90;47.80
24636;DHT22;12772;49.794;10.024;2023-05-07T02:27:38;16.80;47.80
24636;DHT22;12772;49.794;10.024;2023-05-07T02:31:40;16.90;47.80
24636;DHT22;12772;49.794;10.024;2023-05-07T02:35:42;16.80;47.70
24636;DHT22;12772;49.794;10.024;2023-05-07T02:39:44;16.80;47.70
24636;DHT22;12772;49.794;10.024;2023-05-07T02:43:46;16.70;47.70
24636;DHT22;12772;49.794;10.024;2023-05-07T02:47:48;16.80;47.90
24636;DHT22;12772;49.794;10.024;2023-05-07T02:51:50;16.70;47.80
24636;DHT22;12772;49.794;10.024;2023-05-07T02:55:53;16.70;48.00
24636;DHT22;12772;49.794;10.024;2023-05-07T02:59:55;16.60;48.00
24636;DHT22;12772;49.794;10.024;2023-05-07T03:03:57;16.60;48.10
24636;DHT22;12772;49.794;10.024;2023-05-07T03:07:59;16.60;48.20
24636;DHT22;12772;49.794;10.024;2023-05-07T03:12:01;16.60;48.20
24636;DHT22;12772;49.794;10.024;2023-05-07T03:16:03;16.60;48.20
24636;DHT22;12772;49.794;10.024;2023-05-07T03:20:06;16.60;48.40
24636;DHT22;12772;49.794;10.024;2023-05-07T03:24:09;16.60;48.60
24636;DHT22;12772;49.794;10.024;2023-05-07T03:28:11;16.50;48.90
24636;DHT22;12772;49.794;10.024;2023-05-07T03:32:13;16.50;49.30
24636;DHT22;12772;49.794;10.024;2023-05-07T03:36:15;16.40;49.40
24636;DHT22;12772;49.794;10.024;2023-05-07T03:40:17;16.40;49.70
24636;DHT22;12772;49.794;10.024;2023-05-07T03:44:19;16.40;50.60
24636;DHT22;12772;49.794;10.024;2023-05-07T03:48:21;16.40;50.20
24636;DHT22;12772;49.794;10.024;2023-05-07T03:52:23;16.40;50.50
24636;DHT22;12772;49.794;10.024;2023-05-07T03:56:26;16.40;50.90
24636;DHT22;12772;49.794;10.024;2023-05-07T04:00:28;16.40;51.00
24636;DHT22;12772;49.794;10.024;2023-05-07T04:04:34;16.40;51.00
24636;DHT22;12772;49.794;10.024;2023-05-07T04:08:36;16.40;51.00
24636;DHT22;12772;49.794;10.024;2023-05-07T04:12:38;16.40;51.00
24636;DHT22;12772;49.794;10.024;2023-05-07T04:16:40;16.50;51.10
24636;DHT22;12772;49.794;10.024;2023-05-07T04:20:42;16.40;51.00
24636;DHT22;12772;49.794;10.024;2023-05-07T04:24:44;16.40;51.00
24636;DHT22;12772;49.794;10.024;2023-05-07T04:28:46;16.40;51.00
24636;DHT22;12772;49.794;10.024;2023-05-07T04:32:48;16.50;51.20
24636;DHT22;12772;49.794;10.024;2023-05-07T04:36:50;16.50;51.70
24636;DHT22;12772;49.794;10.024;2023-05-07T04:40:52;16.50;51.90
24636;DHT22;12772;49.794;10.024;2023-05-07T04:44:54;16.60;51.20
24636;DHT22;12772;49.794;10.024;2023-05-07T04:48:56;16.60;51.40
24636;DHT22;12772;49.794;10.024;2023-05-07T04:52:58;16.60;51.60
24636;DHT22;12772;49.794;10.024;2023-05-07T04:57:00;16.60;51.80
24636;DHT22;12772;49.794;10.024;2023-05-07T05:01:02;16.60;52.10
24636;DHT22;12772;49.794;10.024;2023-05-07T05:05:05;16.50;52.40
24636;DHT22;12772;49.794;10.024;2023-05-07T05:09:07;16.60;52.80
24636;DHT22;12772;49.794;10.024;2023-05-07T05:13:10;16.60;52.80
24636;DHT22;12772;49.794;10.024;2023-05-07T05:17:13;16.70;55.70
24636;DHT22;12772;49.794;10.024;2023-05-07T05:21:15;16.70;55.20
24636;DHT22;12772;49.794;10.024;2023-05-07T05:25:17;16.70;54.80
24636;DHT22;12772;49.794;10.024;2023-05-07T05:29:19;16.70;54.90
24636;DHT22;12772;49.794;10.024;2023-05-07T05:33:21;16.70;54.70
24636;DHT22;12772;49.794;10.024;2023-05-07T05:37:23;16.70;54.80
24636;DHT22;12772;49.794;10.024;2023-05-07T05:41:25;16.70;54.70
24636;DHT22;12772;49.794;10.024;2023-05-07T05:45:27;16.80;54.90
24636;DHT22;12772;49.794;10.024;2023-05-07T05:49:29;16.80;54.80
24636;DHT22;12772;49.794;10.024;2023-05-07T05:53:32;16.80;54.80
24636;DHT22;12772;49.794;10.024;2023-05-07T05:57:34;16.90;54.70
24636;DHT22;12772;49.794;10.024;2023-05-07T06:01:36;17.00;54.80
24636;DHT22;12772;49.794;10.024;2023-05-07T06:05:38;17.00;54.90
24636;DHT22;12772;49.794;10.024;2023-05-07T06:09:40;17.10;54.60
24636;DHT22;12772;49.794;10.024;2023-05-07T06:13:42;17.10;54.20
24636;DHT22;12772;49.794;10.024;2023-05-07T06:17:44;17.20;54.30
24636;DHT22;12772;49.794;10.024;2023-05-07T06:21:46;17.20;53.70
24636;DHT22;12772;49.794;10.024;2023-05-07T06:25:49;17.20;53.60
24636;DHT22;12772;49.794;10.024;2023-05-07T06:29:51;17.20;53.60
24636;DHT22;12772;49.794;10.024;2023-05-07T06:33:53;17.20;53.80
24636;DHT22;12772;49.794;10.024;2023-05-07T06:37:56;17.20;54.00
24636;DHT22;12772;49.794;10.024;2023-05-07T06:42:00;17.30;54.00
24636;DHT22;12772;49.794;10.024;2023-05-07T06:46:02;17.30;53.80
24636;DHT22;12772;49.794;10.024;2023-05-07T06:50:04;17.40;53.40
24636;DHT22;12772;49.794;10.024;2023-05-07T06:54:06;17.50;53.10
24636;DHT22;12772;49.794;10.024;2023-05-07T06:58:08;17.60;53.00
24636;DHT22;12772;49.794;10.024;2023-05-07T07:02:10;17.70;52.70
24636;DHT22;12772;49.794;10.024;2023-05-07T07:06:13;17.70;52.40
24636;DHT22;12772;49.794;10.024;2023-05-07T07:10:15;17.80;52.50
24636;DHT22;12772;49.794;10.024;2023-05-07T07:14:17;17.80;52.50
24636;DHT22;12772;49.794;10.024;2023-05-07T07:18:19;17.90;52.60
24636;DHT22;12772;49.794;10.024;2023-05-07T07:22:21;17.90;52.70
24636;DHT22;12772;49.794;10.024;2023-05-07T07:26:23;18.10;52.90
24636;DHT22;12772;49.794;10.024;2023-05-07T07:30:25;18.20;53.00
24636;DHT22;12772;49.794;10.024;2023-05-07T07:34:28;18.30;52.40
24636;DHT22;12772;49.794;10.024;2023-05-07T07:38:30;18.40;53.20
24636;DHT22;12772;49.794;10.024;2023-05-07T07:42:32;18.50;52.40
24636;DHT22;12772;49.794;10.024;2023-05-07T07:46:34;18.70;52.00
24636;DHT22;12772;49.794;10.024;2023-05-07T07:50:36;18.80;51.70
24636;DHT22;12772;49.794;10.024;2023-05-07T07:54:38;18.90;51.10
24636;DHT22;12772;49.794;10.024;2023-05-07T07:58:40;19.00;50.90
24636;DHT22;12772;49.794;10.024;2023-05-07T08:02:42;19.20;51.20
24636;DHT22;12772;49.794;10.024;2023-05-07T08:06:45;19.30;50.10
24636;DHT22;12772;49.794;10.024;2023-05-07T08:10:47;19.40;48.40
24636;DHT22;12772;49.794;10.024;2023-05-07T08:14:51;19.30;47.40
24636;DHT22;12772;49.794;10.024;2023-05-07T08:18:53;19.30;47.40
24636;DHT22;12772;49.794;10.024;2023-05-07T08:22:55;19.30;47.40
24636;DHT22;12772;49.794;10.024;2023-05-07T08:26:57;19.30;47.40
24636;DHT22;12772;49.794;10.024;2023-05-07T08:30:59;19.30;47.50
24636;DHT22;12772;49.794;10.024;2023-05-07T08:35:01;19.20;48.50
24636;DHT22;12772;49.794;10.024;2023-05-07T08:39:04;19.30;47.70
24636;DHT22;12772;49.794;10.024;2023-05-07T08:43:06;19.30;48.00
24636;DHT22;12772;49.794;10.024;2023-05-07T08:47:08;19.30;48.10
24636;DHT22;12772;49.794;10.024;2023-05-07T08:51:16;19.30;48.40
24636;DHT22;12772;49.794;10.024;2023-05-07T08:55:20;19.40;48.40
24636;DHT22;12772;49.794;10.024;2023-05-07T08:59:22;19.50;48.20
24636;DHT22;12772;49.794;10.024;2023-05-07T09:03:24;19.60;48.10
24636;DHT22;12772;49.794;10.024;2023-05-07T09:07:26;19.70;48.70
24636;DHT22;12772;49.794;10.024;2023-05-07T09:11:28;19.80;48.40
24636;DHT22;12772;49.794;10.024;2023-05-07T09:15:30;20.00;47.90
24636;DHT22;12772;49.794;10.024;2023-05-07T09:19:32;20.10;47.80
24636;DHT22;12772;49.794;10.024;2023-05-07T09:23:34;20.20;47.80
24636;DHT22;12772;49.794;10.024;2023-05-07T09:27:36;20.30;47.30
24636;DHT22;12772;49.794;10.024;2023-05-07T09:31:39;20.40;47.00
24636;DHT22;12772;49.794;10.024;2023-05-07T09:35:41;20.50;46.80
24636;DHT22;12772;49.794;10.024;2023-05-07T09:39:49;20.50;46.40
24636;DHT22;12772;49.794;10.024;2023-05-07T09:43:55;20.60;46.60
24636;DHT22;12772;49.794;10.024;2023-05-07T09:47:58;20.70;47.00
24636;DHT22;12772;49.794;10.024;2023-05-07T09:52:02;20.80;47.30
24636;DHT22;12772;49.794;10.024;2023-05-07T09:56:04;21.10;46.40
24636;DHT22;12772;49.794;10.024;2023-05-07T10:00:07;21.30;46.00
24636;DHT22;12772;49.794;10.024;2023-05-07T10:04:13;21.50;46.30
24636;DHT22;12772;49.794;10.024;2023-05-07T10:08:16;21.80;45.60
24636;DHT22;12772;49.794;10.024;2023-05-07T10:12:21;22.00;44.60
24636;DHT22;12772;49.794;10.024;2023-05-07T10:16:23;22.20;43.70
24636;DHT22;12772;49.794;10.024;2023-05-07T10:20:26;22.30;43.80
24636;DHT22;12772;49.794;10.024;2023-05-07T10:24:32;22.50;44.00
24636;DHT22;12772;49.794;10.024;2023-05-07T10:28:39;22.70;44.30
24636;DHT22;12772;49.794;10.024;2023-05-07T10:32:50;22.90;42.60
24636;DHT22;12772;49.794;10.024;2023-05-07T10:36:54;23.10;42.40
24636;DHT22;12772;49.794;10.024;2023-05-07T10:40:57;23.30;42.00
24636;DHT22;12772;49.794;10.024;2023-05-07T10:45:11;23.40;41.50
24636;DHT22;12772;49.794;10.024;2023-05-07T10:49:14;23.60;40.90
24636;DHT22;12772;49.794;10.024;2023-05-07T10:57:36;23.90;39.70
24636;DHT22;12772;49.794;10.024;2023-05-07T11:01:54;23.90;39.60
24636;DHT22;12772;49.794;10.024;2023-05-07T11:06:18;24.00;39.80
24636;DHT22;12772;49.794;10.024;2023-05-07T11:10:20;24.00;38.60
24636;DHT22;12772;49.794;10.024;2023-05-07T11:14:55;23.90;38.40
24636;DHT22;12772;49.794;10.024;2023-05-07T11:18:57;23.90;39.10
24636;DHT22;12772;49.794;10.024;2023-05-07T11:22:59;23.90;37.70
24636;DHT22;12772;49.794;10.024;2023-05-07T11:27:01;23.80;37.70
24636;DHT22;12772;49.794;10.024;2023-05-07T11:31:04;23.80;38.40
24636;DHT22;12772;49.794;10.024;2023-05-07T11:35:06;23.90;38.50
24636;DHT22;12772;49.794;10.024;2023-05-07T11:43:29;24.10;38.70
24636;DHT22;12772;49.794;10.024;2023-05-07T11:47:32;24.20;38.80
24636;DHT22;12772;49.794;10.024;2023-05-07T11:51:34;24.40;39.00
24636;DHT22;12772;49.794;10.024;2023-05-07T11:55:36;24.70;39.00
24636;DHT22;12772;49.794;10.024;2023-05-07T11:59:41;24.90;38.20
24636;DHT22;12772;49.794;10.024;2023-05-07T12:03:45;25.20;37.80
24636;DHT22;12772;49.794;10.024;2023-05-07T12:07:47;25.40;36.90
24636;DHT22;12772;49.794;10.024;2023-05-07T12:11:51;25.60;35.30
24636;DHT22;12772;49.794;10.024;2023-05-07T12:15:55;25.70;34.00
24636;DHT22;12772;49.794;10.024;2023-05-07T12:19:57;25.60;32.90
24636;DHT22;12772;49.794;10.024;2023-05-07T12:23:59;25.60;33.40
24636;DHT22;12772;49.794;10.024;2023-05-07T12:28:02;25.70;33.10
24636;DHT22;12772;49.794;10.024;2023-05-07T12:32:16;25.70;32.30
24636;DHT22;12772;49.794;10.024;2023-05-07T12:36:19;25.70;30.80
24636;DHT22;12772;49.794;10.024;2023-05-07T12:40:22;25.70;32.40
24636;DHT22;12772;49.794;10.024;2023-05-07T12:44:33;25.70;33.00
24636;DHT22;12772;49.794;10.024;2023-05-07T12:48:37;25.90;33.20
24636;DHT22;12772;49.794;10.024;2023-05-07T12:52:39;26.10;32.50
24636;DHT22;12772;49.794;10.024;2023-05-07T12:56:41;26.20;31.30
24636;DHT22;12772;49.794;10.024;2023-05-07T13:00:44;26.40;31.20
24636;DHT22;12772;49.794;10.024;2023-05-07T13:04:46;26.50;30.70
24636;DHT22;12772;49.794;10.024;2023-05-07T13:08:48;26.60;28.90
24636;DHT22;12772;49.794;10.024;2023-05-07T13:12:51;26.50;29.30
24636;DHT22;12772;49.794;10.024;2023-05-07T13:16:53;26.50;28.90
24636;DHT22;12772;49.794;10.024;2023-05-07T13:20:55;26.40;28.40
24636;DHT22;12772;49.794;10.024;2023-05-07T13:24:57;26.30;28.10
24636;DHT22;12772;49.794;10.024;2023-05-07T13:28:59;26.20;28.60
24636;DHT22;12772;49.794;10.024;2023-05-07T13:33:02;26.20;28.40
24636;DHT22;12772;49.794;10.024;2023-05-07T13:37:05;26.10;29.20
24636;DHT22;12772;49.794;10.024;2023-05-07T13:41:08;26.20;29.40
24636;DHT22;12772;49.794;10.024;2023-05-07T13:45:10;26.30;28.70
24636;DHT22;12772;49.794;10.024;2023-05-07T13:49:14;26.30;28.40
24636;DHT22;12772;49.794;10.024;2023-05-07T13:53:17;26.20;28.20
24636;DHT22;12772;49.794;10.024;2023-05-07T13:57:19;25.90;28.80
24636;DHT22;12772;49.794;10.024;2023-05-07T14:01:21;25.80;28.70
24636;DHT22;12772;49.794;10.024;2023-05-07T14:05:23;25.80;28.80
24636;DHT22;12772;49.794;10.024;2023-05-07T14:09:25;25.80;29.50
24636;DHT22;12772;49.794;10.024;2023-05-07T14:13:27;25.90;29.40
24636;DHT22;12772;49.794;10.024;2023-05-07T14:17:31;26.00;29.30
24636;DHT22;12772;49.794;10.024;2023-05-07T14:21:33;26.10;29.30
24636;DHT22;12772;49.794;10.024;2023-05-07T14:25:35;26.20;28.20
24636;DHT22;12772;49.794;10.024;2023-05-07T14:29:37;26.20;28.60
24636;DHT22;12772;49.794;10.024;2023-05-07T14:33:39;26.30;28.90
24636;DHT22;12772;49.794;10.024;2023-05-07T14:37:41;26.20;29.10
24636;DHT22;12772;49.794;10.024;2023-05-07T14:41:43;26.30;30.00
24636;DHT22;12772;49.794;10.024;2023-05-07T14:45:45;26.30;30.60
24636;DHT22;12772;49.794;10.024;2023-05-07T14:49:47;26.30;30.70
24636;DHT22;12772;49.794;10.024;2023-05-07T14:53:50;26.30;31.40
24636;DHT22;12772;49.794;10.024;2023-05-07T14:57:52;26.30;30.60
24636;DHT22;12772;49.794;10.024;2023-05-07T15:01:54;26.30;30.50
24636;DHT22;12772;49.794;10.024;2023-05-07T15:05:56;26.20;29.80
24636;DHT22;12772;49.794;10.024;2023-05-07T15:09:58;26.10;29.60
24636;DHT22;12772;49.794;10.024;2023-05-07T15:14:01;26.00;30.20
24636;DHT22;12772;49.794;10.024;2023-05-07T15:18:03;25.90;30.70
24636;DHT22;12772;49.794;10.024;2023-05-07T15:22:05;25.70;30.50
24636;DHT22;12772;49.794;10.024;2023-05-07T15:26:07;25.60;30.60
24636;DHT22;12772;49.794;10.024;2023-05-07T15:30:09;25.50;30.90
24636;DHT22;12772;49.794;10.024;2023-05-07T15:34:11;25.40;31.10
24636;DHT22;12772;49.794;10.024;2023-05-07T15:38:15;25.30;31.20
24636;DHT22;12772;49.794;10.024;2023-05-07T15:42:17;25.20;31.30
24636;DHT22;12772;49.794;10.024;2023-05-07T15:46:21;25.10;32.00
24636;DHT22;12772;49.794;10.024;2023-05-07T15:50:24;25.00;32.40
24636;DHT22;12772;49.794;10.024;2023-05-07T15:54:26;24.90;32.30
24636;DHT22;12772;49.794;10.024;2023-05-07T15:58:28;24.80;32.20
24636;DHT22;12772;49.794;10.024;2023-05-07T16:02:30;24.70;32.10
24636;DHT22;12772;49.794;10.024;2023-05-07T16:06:32;24.70;32.10
24636;DHT22;12772;49.794;10.024;2023-05-07T16:10:34;24.60;32.20
24636;DHT22;12772;49.794;10.024;2023-05-07T16:14:36;24.50;32.50
24636;DHT22;12772;49.794;10.024;2023-05-07T16:18:38;24.40;32.60
24636;DHT22;12772;49.794;10.024;2023-05-07T16:22:40;24.40;33.00
24636;DHT22;12772;49.794;10.024;2023-05-07T16:26:42;24.40;33.50
24636;DHT22;12772;49.794;10.024;2023-05-07T16:30:44;24.30;33.60
24636;DHT22;12772;49.794;10.024;2023-05-07T16:34:46;24.20;33.50
24636;DHT22;12772;49.794;10.024;2023-05-07T16:38:48;24.20;33.80
24636;DHT22;12772;49.794;10.024;2023-05-07T16:42:50;24.10;34.20
24636;DHT22;12772;49.794;10.024;2023-05-07T16:46:52;24.10;34.40
24636;DHT22;12772;49.794;10.024;2023-05-07T16:50:54;24.10;35.30
24636;DHT22;12772;49.794;10.024;2023-05-07T16:54:57;24.00;35.10
24636;DHT22;12772;49.794;10.024;2023-05-07T16:59:01;24.00;35.10
24636;DHT22;12772;49.794;10.024;2023-05-07T17:03:03;23.90;35.20
24636;DHT22;12772;49.794;10.024;2023-05-07T17:07:05;23.90;35.60
24636;DHT22;12772;49.794;10.024;2023-05-07T17:11:07;23.90;35.90
24636;DHT22;12772;49.794;10.024;2023-05-07T17:15:10;23.90;35.70
24636;DHT22;12772;49.794;10.024;2023-05-07T17:19:12;23.80;35.50
24636;DHT22;12772;49.794;10.024;2023-05-07T17:23:14;23.70;35.90
24636;DHT22;12772;49.794;10.024;2023-05-07T17:27:16;23.70;36.10
24636;DHT22;12772;49.794;10.024;2023-05-07T17:31:18;23.70;36.30
24636;DHT22;12772;49.794;10.024;2023-05-07T17:35:20;23.60;36.40
24636;DHT22;12772;49.794;10.024;2023-05-07T17:39:22;23.60;36.30
24636;DHT22;12772;49.794;10.024;2023-05-07T17:43:25;23.50;36.30
24636;DHT22;12772;49.794;10.024;2023-05-07T17:47:27;23.40;35.90
24636;DHT22;12772;49.794;10.024;2023-05-07T17:51:29;23.30;36.10
24636;DHT22;12772;49.794;10.024;2023-05-07T17:55:31;23.20;36.40
24636;DHT22;12772;49.794;10.024;2023-05-07T17:59:33;23.00;36.20
24636;DHT22;12772;49.794;10.024;2023-05-07T18:03:35;22.90;36.20
24636;DHT22;12772;49.794;10.024;2023-05-07T18:07:37;22.80;36.40
24636;DHT22;12772;49.794;10.024;2023-05-07T18:11:39;22.70;36.60
24636;DHT22;12772;49.794;10.024;2023-05-07T18:15:43;22.60;36.40
24636;DHT22;12772;49.794;10.024;2023-05-07T18:19:45;22.50;36.90
24636;DHT22;12772;49.794;10.024;2023-05-07T18:23:47;22.50;36.50
24636;DHT22;12772;49.794;10.024;2023-05-07T18:27:51;22.40;36.60
24636;DHT22;12772;49.794;10.024;2023-05-07T18:31:53;22.30;36.70
24636;DHT22;12772;49.794;10.024;2023-05-07T18:35:55;22.20;36.60
24636;DHT22;12772;49.794;10.024;2023-05-07T18:39:57;22.10;36.60
24636;DHT22;12772;49.794;10.024;2023-05-07T18:44:01;22.10;36.50
24636;DHT22;12772;49.794;10.024;2023-05-07T18:48:04;22.00;36.30
24636;DHT22;12772;49.794;10.024;2023-05-07T18:52:07;21.90;36.50
24636;DHT22;12772;49.794;10.024;2023-05-07T18:56:09;21.80;36.80
24636;DHT22;12772;49.794;10.024;2023-05-07T19:00:11;21.70;37.10
24636;DHT22;12772;49.794;10.024;2023-05-07T19:04:13;21.60;37.20
24636;DHT22;12772;49.794;10.024;2023-05-07T19:08:18;21.50;37.20
24636;DHT22;12772;49.794;10.024;2023-05-07T19:12:20;21.50;38.30
24636;DHT22;12772;49.794;10.024;2023-05-07T19:16:22;21.50;37.70
24636;DHT22;12772;49.794;10.024;2023-05-07T19:20:24;21.40;37.60
24636;DHT22;12772;49.794;10.024;2023-05-07T19:24:26;21.40;37.70
24636;DHT22;12772;49.794;10.024;2023-05-07T19:28:28;21.30;37.90
24636;DHT22;12772;49.794;10.024;2023-05-07T19:32:30;21.30;38.10
24636;DHT22;12772;49.794;10.024;2023-05-07T19:36:32;21.20;38.20
24636;DHT22;12772;49.794;10.024;2023-05-07T19:40:34;21.20;38.50
24636;DHT22;12772;49.794;10.024;2023-05-07T19:44:36;21.20;38.70
24636;DHT22;12772;49.794;10.024;2023-05-07T19:48:38;21.10;38.70
24636;DHT22;12772;49.794;10.024;2023-05-07T19:52:40;21.10;39.10
24636;DHT22;12772;49.794;10.024;2023-05-07T19:56:42;21.00;39.30
24636;DHT22;12772;49.794;10.024;2023-05-07T20:00:44;21.00;39.60
24636;DHT22;12772;49.794;10.024;2023-05-07T20:04:46;21.00;39.80
24636;DHT22;12772;49.794;10.024;2023-05-07T20:08:49;20.90;39.60
24636;DHT22;12772;49.794;10.024;2023-05-07T20:12:51;20.80;39.80
24636;DHT22;12772;49.794;10.024;2023-05-07T20:16:53;20.80;40.00
24636;DHT22;12772;49.794;10.024;2023-05-07T20:20:55;20.70;40.00
24636;DHT22;12772;49.794;10.024;2023-05-07T20:24:57;20.70;40.00
24636;DHT22;12772;49.794;10.024;2023-05-07T20:28:59;20.60;40.10
24636;DHT22;12772;49.794;10.024;2023-05-07T20:33:02;20.50;40.20
24636;DHT22;12772;49.794;10.024;2023-05-07T20:37:04;20.50;40.20
24636;DHT22;12772;49.794;10.024;2023-05-07T20:41:08;20.40;40.30
24636;DHT22;12772;49.794;10.024;2023-05-07T20:45:11;20.40;40.40
24636;DHT22;12772;49.794;10.024;2023-05-07T20:49:13;20.30;40.30
24636;DHT22;12772;49.794;10.024;2023-05-07T20:53:16;20.10;40.40
24636;DHT22;12772;49.794;10.024;2023-05-07T20:57:18;20.00;40.60
24636;DHT22;12772;49.794;10.024;2023-05-07T21:01:20;19.90;40.90
24636;DHT22;12772;49.794;10.024;2023-05-07T21:05:22;19.90;41.10
24636;DHT22;12772;49.794;10.024;2023-05-07T21:09:24;19.80;41.00
24636;DHT22;12772;49.794;10.024;2023-05-07T21:13:26;19.60;40.80
24636;DHT22;12772;49.794;10.024;2023-05-07T21:17:28;19.60;40.80
24636;DHT22;12772;49.794;10.024;2023-05-07T21:21:32;19.50;40.80
24636;DHT22;12772;49.794;10.024;2023-05-07T21:25:38;19.40;40.60
24636;DHT22;12772;49.794;10.024;2023-05-07T21:29:40;19.30;40.40
24636;DHT22;12772;49.794;10.024;2023-05-07T21:33:43;19.30;40.50
24636;DHT22;12772;49.794;10.024;2023-05-07T21:37:45;19.30;40.40
24636;DHT22;12772;49.794;10.024;2023-05-07T21:41:47;19.20;40.30
24636;DHT22;12772;49.794;10.024;2023-05-07T21:45:49;19.20;40.30
24636;DHT22;12772;49.794;10.024;2023-05-07T21:49:51;19.10;40.40
24636;DHT22;12772;49.794;10.024;2023-05-07T21:53:53;19.10;40.40
24636;DHT22;12772;49.794;10.024;2023-05-07T21:57:55;19.00;40.90
24636;DHT22;12772;49.794;10.024;2023-05-07T22:01:57;18.90;41.80
24636;DHT22;12772;49.794;10.024;2023-05-07T22:05:59;18.90;41.40
24636;DHT22;12772;49.794;10.024;2023-05-07T22:10:01;18.80;41.40
24636;DHT22;12772;49.794;10.024;2023-05-07T22:14:03;18.70;41.80
24636;DHT22;12772;49.794;10.024;2023-05-07T22:18:06;18.70;41.80
24636;DHT22;12772;49.794;10.024;2023-05-07T22:22:08;18.60;41.90
24636;DHT22;12772;49.794;10.024;2023-05-07T22:26:12;18.60;42.10
24636;DHT22;12772;49.794;10.024;2023-05-07T22:30:14;18.50;42.00
24636;DHT22;12772;49.794;10.024;2023-05-07T22:34:16;18.50;42.30
24636;DHT22;12772;49.794;10.024;2023-05-07T22:38:18;18.40;42.50
24636;DHT22;12772;49.794;10.024;2023-05-07T22:42:20;18.40;42.70
24636;DHT22;12772;49.794;10.024;2023-05-07T22:46:22;18.40;42.80
24636;DHT22;12772;49.794;10.024;2023-05-07T22:50:24;18.40;43.00
24636;DHT22;12772;49.794;10.024;2023-05-07T22:54:26;18.30;43.10
24636;DHT22;12772;49.794;10.024;2023-05-07T22:58:28;18.30;43.20
24636;DHT22;12772;49.794;10.024;2023-05-07T23:02:30;18.30;43.30
24636;DHT22;12772;49.794;10.024;2023-05-07T23:06:32;18.30;43.30
24636;DHT22;12772;49.794;10.024;2023-05-07T23:10:34;18.30;43.40
24636;DHT22;12772;49.794;10.024;2023-05-07T23:14:36;18.20;43.40
24636;DHT22;12772;49.794;10.024;2023-05-07T23:18:39;18.10;43.60
24636;DHT22;12772;49.794;10.024;2023-05-07T23:22:41;18.00;43.70
24636;DHT22;12772;49.794;10.024;2023-05-07T23:26:43;18.00;44.00
24636;DHT22;12772;49.794;10.024;2023-05-07T23:30:45;17.90;44.10
24636;DHT22;12772;49.794;10.024;2023-05-07T23:34:50;17.90;44.40
24636;DHT22;12772;49.794;10.024;2023-05-07T23:38:55;17.90;44.60
24636;DHT22;12772;49.794;10.024;2023-05-07T23:42:57;17.90;44.80
24636;DHT22;12772;49.794;10.024;2023-05-07T23:46:59;17.80;44.80
24636;DHT22;12772;49.794;10.024;2023-05-07T23:51:01;17.80;44.90
24636;DHT22;12772;49.794;10.024;2023-05-07T23:55:03;17.80;45.00
24636;DHT22;12772;49.794;10.024;2023-05-07T23:59:05;17.70;45.00
